sensor_id;sensor_type;location;lat;lon;timestamp;temperature;humidity
1538;DHT22;12022;52.266;10.522;2022-10-01T00:03:42;10.70;99.90
1538;DHT22;12022;52.266;10.522;2022-10-01T00:06:15;10.60;99.90
1538;DHT22;12022;52.266;10.522;2022-10-01T00:08:44;10.60;99.90
1538;DHT22;12022;52.266;10.522;2022-10-01T00:11:20;10.70;99.90
1538;DHT22;12022;52.266;10.522;2022-10-01T00:13:47;10.60;99.90
1538;DHT22;12022;52.266;10.522;2022-10-01T00:16:17;10.60;99.90
1538;DHT22;12022;52.266;10.522;2022-10-01T00:18:46;10.60;99.90
1538;DHT22;12022;52.266;10.522;2022-10-01T00:21:19;10.90;99.90
1538;DHT22;12022;52.266;10.522;2022-10-01T00:23:47;10.70;99.90
1538;DHT22;12022;52.266;10.522;2022-10-01T00:26:19;10.70;99.90
1538;DHT22;12022;52.266;10.522;2022-10-01T00:28:51;10.70;99.90
1538;DHT22;12022;52.266;10.522;2022-10-01T00:31:18;10.70;99.90
1538;DHT22;12022;52.266;10.522;2022-10-01T00:33:46;10.70;99.90
1538;DHT22;12022;52.266;10.522;2022-10-01T00:36:13;10.70;99.90
1538;DHT22;12022;52.266;10.522;2022-10-01T00:38:40;10.70;99.90
1538;DHT22;12022;52.266;10.522;2022-10-01T00:41:08;10.70;99.90
1538;DHT22;12022;52.266;10.522;2022-10-01T00:43:41;10.80;99.90
1538;DHT22;12022;52.266;10.522;2022-10-01T00:46:21;10.80;99.90
1538;DHT22;12022;52.266;10.522;2022-10-01T00:51:19;10.90;99.90
1538;DHT22;12022;52.266;10.522;2022-10-01T00:53:46;11.20;99.90
1538;DHT22;12022;52.266;10.522;2022-10-01T00:56:13;10.90;99.90
1538;DHT22;12022;52.266;10.522;2022-10-01T00:58:41;10.90;99.90
1538;DHT22;12022;52.266;10.522;2022-10-01T01:01:10;10.90;99.90
1538;DHT22;12022;52.266;10.522;2022-10-01T01:03:37;11.00;99.90
1538;DHT22;12022;52.266;10.522;2022-10-01T01:06:04;11.30;99.90
1538;DHT22;12022;52.266;10.522;2022-10-01T01:08:33;11.10;99.90
1538;DHT22;12022;52.266;10.522;2022-10-01T01:11:30;11.10;99.90
1538;DHT22;12022;52.266;10.522;2022-10-01T01:14:28;11.20;99.90
1538;DHT22;12022;52.266;10.522;2022-10-01T01:17:02;11.20;99.90
1538;DHT22;12022;52.266;10.522;2022-10-01T01:20:03;11.20;99.90
1538;DHT22;12022;52.266;10.522;2022-10-01T01:22:40;11.30;99.90
1538;DHT22;12022;52.266;10.522;2022-10-01T01:25:21;11.20;99.90
1538;DHT22;12022;52.266;10.522;2022-10-01T01:30:25;11.30;99.90
1538;DHT22;12022;52.266;10.522;2022-10-01T01:33:05;11.60;99.90
1538;DHT22;12022;52.266;10.522;2022-10-01T01:35:40;11.20;99.90
1538;DHT22;12022;52.266;10.522;2022-10-01T01:38:16;11.40;99.90
1538;DHT22;12022;52.266;10.522;2022-10-01T01:40:46;11.20;99.90
1538;DHT22;12022;52.266;10.522;2022-10-01T01:43:20;11.20;99.90
1538;DHT22;12022;52.266;10.522;2022-10-01T01:45:51;11.20;99.90
1538;DHT22;12022;52.266;10.522;2022-10-01T01:48:24;11.20;99.90
1538;DHT22;12022;52.266;10.522;2022-10-01T01:53:42;11.20;99.90
1538;DHT22;12022;52.266;10.522;2022-10-01T01:56:09;11.10;99.90
1538;DHT22;12022;52.266;10.522;2022-10-01T01:58:37;11.10;99.90
1538;DHT22;12022;52.266;10.522;2022-10-01T02:01:04;11.00;99.90
1538;DHT22;12022;52.266;10.522;2022-10-01T02:03:33;11.10;99.90
1538;DHT22;12022;52.266;10.522;2022-10-01T02:06:10;11.30;99.90
1538;DHT22;12022;52.266;10.522;2022-10-01T02:08:56;11.00;99.90
1538;DHT22;12022;52.266;10.522;2022-10-01T02:11:38;11.00;99.90
1538;DHT22;12022;52.266;10.522;2022-10-01T02:17:12;10.90;99.90
1538;DHT22;12022;52.266;10.522;2022-10-01T02:22:29;10.90;99.90
1538;DHT22;12022;52.266;10.522;2022-10-01T02:25:02;10.90;99.90
1538;DHT22;12022;52.266;10.522;2022-10-01T02:27:55;10.90;99.90
1538;DHT22;12022;52.266;10.522;2022-10-01T02:30:21;10.90;99.90
1538;DHT22;12022;52.266;10.522;2022-10-01T02:32:49;10.90;99.90
1538;DHT22;12022;52.266;10.522;2022-10-01T02:35:18;10.90;99.90
1538;DHT22;12022;52.266;10.522;2022-10-01T02:37:47;10.90;99.90
1538;DHT22;12022;52.266;10.522;2022-10-01T02:40:21;11.00;99.90
1538;DHT22;12022;52.266;10.522;2022-10-01T02:42:54;11.00;99.90
1538;DHT22;12022;52.266;10.522;2022-10-01T02:45:24;11.00;99.90
1538;DHT22;12022;52.266;10.522;2022-10-01T02:48:02;11.10;99.90
1538;DHT22;12022;52.266;10.522;2022-10-01T02:50:36;11.20;99.90
1538;DHT22;12022;52.266;10.522;2022-10-01T02:53:20;11.50;99.90
1538;DHT22;12022;52.266;10.522;2022-10-01T02:55:49;11.30;99.90
1538;DHT22;12022;52.266;10.522;2022-10-01T02:58:17;11.30;99.90
1538;DHT22;12022;52.266;10.522;2022-10-01T03:00:44;11.40;99.90
1538;DHT22;12022;52.266;10.522;2022-10-01T03:03:11;11.50;99.90
1538;DHT22;12022;52.266;10.522;2022-10-01T03:05:38;11.60;99.90
1538;DHT22;12022;52.266;10.522;2022-10-01T03:08:05;11.70;99.90
1538;DHT22;12022;52.266;10.522;2022-10-01T03:10:32;11.70;99.90
1538;DHT22;12022;52.266;10.522;2022-10-01T03:13:00;11.80;99.90
1538;DHT22;12022;52.266;10.522;2022-10-01T03:15:27;11.90;99.90
1538;DHT22;12022;52.266;10.522;2022-10-01T03:17:54;11.90;99.90
1538;DHT22;12022;52.266;10.522;2022-10-01T03:20:21;12.00;99.90
1538;DHT22;12022;52.266;10.522;2022-10-01T03:22:49;12.00;99.90
1538;DHT22;12022;52.266;10.522;2022-10-01T03:25:16;12.10;99.90
1538;DHT22;12022;52.266;10.522;2022-10-01T03:27:43;12.10;99.90
1538;DHT22;12022;52.266;10.522;2022-10-01T03:30:12;12.10;99.90
1538;DHT22;12022;52.266;10.522;2022-10-01T03:32:39;12.40;99.90
1538;DHT22;12022;52.266;10.522;2022-10-01T03:35:06;12.20;99.90
1538;DHT22;12022;52.266;10.522;2022-10-01T03:37:33;12.20;99.90
1538;DHT22;12022;52.266;10.522;2022-10-01T03:40:00;12.20;99.90
1538;DHT22;12022;52.266;10.522;2022-10-01T03:42:27;12.20;99.90
1538;DHT22;12022;52.266;10.522;2022-10-01T03:44:54;12.30;99.90
1538;DHT22;12022;52.266;10.522;2022-10-01T03:47:21;12.30;99.90
1538;DHT22;12022;52.266;10.522;2022-10-01T03:49:49;12.30;99.90
1538;DHT22;12022;52.266;10.522;2022-10-01T03:52:16;12.50;99.90
1538;DHT22;12022;52.266;10.522;2022-10-01T03:54:43;12.50;99.90
1538;DHT22;12022;52.266;10.522;2022-10-01T03:57:10;12.50;99.90
1538;DHT22;12022;52.266;10.522;2022-10-01T03:59:37;12.50;99.90
1538;DHT22;12022;52.266;10.522;2022-10-01T04:02:04;12.50;99.90
1538;DHT22;12022;52.266;10.522;2022-10-01T04:04:31;12.50;99.90
1538;DHT22;12022;52.266;10.522;2022-10-01T04:06:58;12.60;99.90
1538;DHT22;12022;52.266;10.522;2022-10-01T04:09:25;12.60;99.90
1538;DHT22;12022;52.266;10.522;2022-10-01T04:11:52;12.60;99.90
1538;DHT22;12022;52.266;10.522;2022-10-01T04:14:19;12.60;99.90
1538;DHT22;12022;52.266;10.522;2022-10-01T04:16:46;12.60;99.90
1538;DHT22;12022;52.266;10.522;2022-10-01T04:19:14;12.70;99.90
1538;DHT22;12022;52.266;10.522;2022-10-01T04:21:41;12.70;99.90
1538;DHT22;12022;52.266;10.522;2022-10-01T04:24:08;12.70;99.90
1538;DHT22;12022;52.266;10.522;2022-10-01T04:26:35;12.70;99.90
1538;DHT22;12022;52.266;10.522;2022-10-01T04:29:02;12.70;99.90
1538;DHT22;12022;52.266;10.522;2022-10-01T04:31:29;12.80;99.90
1538;DHT22;12022;52.266;10.522;2022-10-01T04:34:01;13.10;99.90
1538;DHT22;12022;52.266;10.522;2022-10-01T04:36:28;12.80;99.90
1538;DHT22;12022;52.266;10.522;2022-10-01T04:38:56;12.80;99.90
1538;DHT22;12022;52.266;10.522;2022-10-01T04:41:28;12.90;99.90
1538;DHT22;12022;52.266;10.522;2022-10-01T04:43:57;12.90;99.90
1538;DHT22;12022;52.266;10.522;2022-10-01T04:46:26;12.90;99.90
1538;DHT22;12022;52.266;10.522;2022-10-01T04:48:53;12.90;99.90
1538;DHT22;12022;52.266;10.522;2022-10-01T04:51:20;12.90;99.90
1538;DHT22;12022;52.266;10.522;2022-10-01T04:53:47;12.90;99.90
1538;DHT22;12022;52.266;10.522;2022-10-01T04:56:15;12.90;99.90
1538;DHT22;12022;52.266;10.522;2022-10-01T04:58:41;12.90;99.90
1538;DHT22;12022;52.266;10.522;2022-10-01T05:01:08;12.90;99.90
1538;DHT22;12022;52.266;10.522;2022-10-01T05:03:35;13.30;99.90
1538;DHT22;12022;52.266;10.522;2022-10-01T05:06:02;12.90;99.90
1538;DHT22;12022;52.266;10.522;2022-10-01T05:08:29;13.00;99.90
1538;DHT22;12022;52.266;10.522;2022-10-01T05:10:58;13.00;99.90
1538;DHT22;12022;52.266;10.522;2022-10-01T05:13:26;13.00;99.90
1538;DHT22;12022;52.266;10.522;2022-10-01T05:15:56;13.10;99.90
1538;DHT22;12022;52.266;10.522;2022-10-01T05:18:23;13.10;99.90
1538;DHT22;12022;52.266;10.522;2022-10-01T05:20:50;13.10;99.90
1538;DHT22;12022;52.266;10.522;2022-10-01T05:23:17;13.20;99.90
1538;DHT22;12022;52.266;10.522;2022-10-01T05:25:44;13.20;99.90
1538;DHT22;12022;52.266;10.522;2022-10-01T05:28:13;13.10;99.90
1538;DHT22;12022;52.266;10.522;2022-10-01T05:30:46;13.10;99.90
1538;DHT22;12022;52.266;10.522;2022-10-01T05:33:13;13.00;99.90
1538;DHT22;12022;52.266;10.522;2022-10-01T05:35:40;12.90;99.90
1538;DHT22;12022;52.266;10.522;2022-10-01T05:38:07;12.90;99.90
1538;DHT22;12022;52.266;10.522;2022-10-01T05:40:34;12.80;99.90
1538;DHT22;12022;52.266;10.522;2022-10-01T05:43:02;12.80;99.90
1538;DHT22;12022;52.266;10.522;2022-10-01T05:45:30;12.70;99.90
1538;DHT22;12022;52.266;10.522;2022-10-01T05:47:59;12.60;99.90
1538;DHT22;12022;52.266;10.522;2022-10-01T05:50:28;12.60;99.90
1538;DHT22;12022;52.266;10.522;2022-10-01T05:52:57;12.50;99.90
1538;DHT22;12022;52.266;10.522;2022-10-01T05:55:25;12.50;99.90
1538;DHT22;12022;52.266;10.522;2022-10-01T05:57:57;12.40;99.90
1538;DHT22;12022;52.266;10.522;2022-10-01T06:00:24;12.30;99.90
1538;DHT22;12022;52.266;10.522;2022-10-01T06:02:56;12.30;99.90
1538;DHT22;12022;52.266;10.522;2022-10-01T06:05:24;12.30;99.90
1538;DHT22;12022;52.266;10.522;2022-10-01T06:07:51;12.20;99.90
1538;DHT22;12022;52.266;10.522;2022-10-01T06:10:20;12.10;99.90
1538;DHT22;12022;52.266;10.522;2022-10-01T06:12:47;12.00;99.90
1538;DHT22;12022;52.266;10.522;2022-10-01T06:15:15;11.90;99.90
1538;DHT22;12022;52.266;10.522;2022-10-01T06:17:42;11.90;99.90
1538;DHT22;12022;52.266;10.522;2022-10-01T06:20:15;11.80;99.90
1538;DHT22;12022;52.266;10.522;2022-10-01T06:22:43;11.80;99.90
1538;DHT22;12022;52.266;10.522;2022-10-01T06:25:12;11.80;99.90
1538;DHT22;12022;52.266;10.522;2022-10-01T06:27:39;11.80;99.90
1538;DHT22;12022;52.266;10.522;2022-10-01T06:30:07;11.80;99.90
1538;DHT22;12022;52.266;10.522;2022-10-01T06:32:34;11.80;99.90
1538;DHT22;12022;52.266;10.522;2022-10-01T06:35:02;11.70;99.90
1538;DHT22;12022;52.266;10.522;2022-10-01T06:37:29;11.80;99.90
1538;DHT22;12022;52.266;10.522;2022-10-01T06:39:56;11.70;99.90
1538;DHT22;12022;52.266;10.522;2022-10-01T06:42:23;11.80;99.90
1538;DHT22;12022;52.266;10.522;2022-10-01T06:44:50;11.80;99.90
1538;DHT22;12022;52.266;10.522;2022-10-01T06:47:17;11.80;99.90
1538;DHT22;12022;52.266;10.522;2022-10-01T06:49:44;11.80;99.90
1538;DHT22;12022;52.266;10.522;2022-10-01T06:52:13;11.80;99.90
1538;DHT22;12022;52.266;10.522;2022-10-01T06:54:59;11.80;99.90
1538;DHT22;12022;52.266;10.522;2022-10-01T06:57:27;11.80;99.90
1538;DHT22;12022;52.266;10.522;2022-10-01T06:59:54;11.80;99.90
1538;DHT22;12022;52.266;10.522;2022-10-01T07:02:24;11.80;99.90
1538;DHT22;12022;52.266;10.522;2022-10-01T07:04:55;11.80;99.90
1538;DHT22;12022;52.266;10.522;2022-10-01T07:07:28;11.80;99.90
1538;DHT22;12022;52.266;10.522;2022-10-01T07:09:59;11.80;99.90
1538;DHT22;12022;52.266;10.522;2022-10-01T07:12:30;11.80;99.90
1538;DHT22;12022;52.266;10.522;2022-10-01T07:15:21;11.80;99.90
1538;DHT22;12022;52.266;10.522;2022-10-01T07:17:50;11.80;99.90
1538;DHT22;12022;52.266;10.522;2022-10-01T07:20:19;11.90;99.90
1538;DHT22;12022;52.266;10.522;2022-10-01T07:22:48;11.90;99.90
1538;DHT22;12022;52.266;10.522;2022-10-01T07:25:15;11.90;99.90
1538;DHT22;12022;52.266;10.522;2022-10-01T07:28:06;11.90;99.90
1538;DHT22;12022;52.266;10.522;2022-10-01T07:34:46;12.00;99.90
1538;DHT22;12022;52.266;10.522;2022-10-01T07:37:47;12.00;99.90
1538;DHT22;12022;52.266;10.522;2022-10-01T07:40:15;12.00;99.90
1538;DHT22;12022;52.266;10.522;2022-10-01T07:42:43;12.00;99.90
1538;DHT22;12022;52.266;10.522;2022-10-01T07:45:17;12.10;99.90
1538;DHT22;12022;52.266;10.522;2022-10-01T07:48:00;12.00;99.90
1538;DHT22;12022;52.266;10.522;2022-10-01T07:50:28;12.10;99.90
1538;DHT22;12022;52.266;10.522;2022-10-01T07:52:59;12.10;99.90
1538;DHT22;12022;52.266;10.522;2022-10-01T07:55:27;12.10;99.90
1538;DHT22;12022;52.266;10.522;2022-10-01T07:57:57;12.10;99.90
1538;DHT22;12022;52.266;10.522;2022-10-01T08:00:28;12.10;99.90
1538;DHT22;12022;52.266;10.522;2022-10-01T08:02:56;12.10;99.90
1538;DHT22;12022;52.266;10.522;2022-10-01T08:05:25;12.10;99.90
1538;DHT22;12022;52.266;10.522;2022-10-01T08:07:52;12.10;99.90
1538;DHT22;12022;52.266;10.522;2022-10-01T08:10:23;12.10;99.90
1538;DHT22;12022;52.266;10.522;2022-10-01T08:12:50;12.10;99.90
1538;DHT22;12022;52.266;10.522;2022-10-01T08:15:17;12.10;99.90
1538;DHT22;12022;52.266;10.522;2022-10-01T08:17:44;12.10;99.90
1538;DHT22;12022;52.266;10.522;2022-10-01T08:20:12;12.00;99.90
1538;DHT22;12022;52.266;10.522;2022-10-01T08:22:39;12.00;99.90
1538;DHT22;12022;52.266;10.522;2022-10-01T08:25:08;12.00;99.90
1538;DHT22;12022;52.266;10.522;2022-10-01T08:27:35;12.00;99.90
1538;DHT22;12022;52.266;10.522;2022-10-01T08:30:03;12.00;99.90
1538;DHT22;12022;52.266;10.522;2022-10-01T08:32:30;12.10;99.90
1538;DHT22;12022;52.266;10.522;2022-10-01T08:34:57;12.10;99.90
1538;DHT22;12022;52.266;10.522;2022-10-01T08:37:28;12.10;99.90
1538;DHT22;12022;52.266;10.522;2022-10-01T08:39:56;12.10;99.90
1538;DHT22;12022;52.266;10.522;2022-10-01T08:42:52;12.10;99.90
1538;DHT22;12022;52.266;10.522;2022-10-01T08:45:41;12.10;99.90
1538;DHT22;12022;52.266;10.522;2022-10-01T08:51:04;12.10;99.90
1538;DHT22;12022;52.266;10.522;2022-10-01T08:53:59;12.10;99.90
1538;DHT22;12022;52.266;10.522;2022-10-01T08:56:39;12.10;99.90
1538;DHT22;12022;52.266;10.522;2022-10-01T09:01:40;12.20;99.90
1538;DHT22;12022;52.266;10.522;2022-10-01T09:04:07;12.30;99.90
1538;DHT22;12022;52.266;10.522;2022-10-01T09:06:34;12.40;99.90
1538;DHT22;12022;52.266;10.522;2022-10-01T09:09:25;12.50;99.90
1538;DHT22;12022;52.266;10.522;2022-10-01T09:17:42;12.70;99.90
1538;DHT22;12022;52.266;10.522;2022-10-01T09:20:28;12.70;99.90
1538;DHT22;12022;52.266;10.522;2022-10-01T09:25:34;12.80;99.90
1538;DHT22;12022;52.266;10.522;2022-10-01T09:28:21;12.90;99.90
1538;DHT22;12022;52.266;10.522;2022-10-01T09:33:23;13.00;99.90
1538;DHT22;12022;52.266;10.522;2022-10-01T09:36:16;13.10;99.90
1538;DHT22;12022;52.266;10.522;2022-10-01T09:38:51;13.10;99.90
1538;DHT22;12022;52.266;10.522;2022-10-01T09:41:23;13.20;99.90
1538;DHT22;12022;52.266;10.522;2022-10-01T09:43:50;13.30;99.90
1538;DHT22;12022;52.266;10.522;2022-10-01T09:46:17;13.30;99.90
1538;DHT22;12022;52.266;10.522;2022-10-01T09:51:48;13.40;99.90
1538;DHT22;12022;52.266;10.522;2022-10-01T09:54:33;13.50;99.90
1538;DHT22;12022;52.266;10.522;2022-10-01T10:00:10;13.70;99.90
1538;DHT22;12022;52.266;10.522;2022-10-01T10:02:44;13.80;99.90
1538;DHT22;12022;52.266;10.522;2022-10-01T10:07:50;14.20;99.90
1538;DHT22;12022;52.266;10.522;2022-10-01T10:10:26;14.30;99.90
1538;DHT22;12022;52.266;10.522;2022-10-01T10:13:00;14.50;99.90
1538;DHT22;12022;52.266;10.522;2022-10-01T10:15:28;14.60;99.90
1538;DHT22;12022;52.266;10.522;2022-10-01T10:18:11;14.70;99.90
1538;DHT22;12022;52.266;10.522;2022-10-01T10:20:51;14.70;99.90
1538;DHT22;12022;52.266;10.522;2022-10-01T10:23:22;14.80;99.90
1538;DHT22;12022;52.266;10.522;2022-10-01T10:28:23;15.10;99.90
1538;DHT22;12022;52.266;10.522;2022-10-01T10:30:51;15.30;99.90
1538;DHT22;12022;52.266;10.522;2022-10-01T10:33:19;15.70;99.90
1538;DHT22;12022;52.266;10.522;2022-10-01T10:36:02;15.70;99.90
1538;DHT22;12022;52.266;10.522;2022-10-01T10:38:32;16.10;99.90
1538;DHT22;12022;52.266;10.522;2022-10-01T10:41:00;16.20;99.90
1538;DHT22;12022;52.266;10.522;2022-10-01T10:43:31;16.20;99.90
1538;DHT22;12022;52.266;10.522;2022-10-01T10:46:00;16.20;99.90
1538;DHT22;12022;52.266;10.522;2022-10-01T10:48:31;16.20;99.90
1538;DHT22;12022;52.266;10.522;2022-10-01T10:51:00;16.30;99.90
1538;DHT22;12022;52.266;10.522;2022-10-01T10:53:38;16.40;99.90
1538;DHT22;12022;52.266;10.522;2022-10-01T10:56:18;16.50;99.90
1538;DHT22;12022;52.266;10.522;2022-10-01T10:59:05;16.50;99.90
1538;DHT22;12022;52.266;10.522;2022-10-01T11:01:37;16.60;99.90
1538;DHT22;12022;52.266;10.522;2022-10-01T11:06:56;16.20;99.90
1538;DHT22;12022;52.266;10.522;2022-10-01T11:09:29;16.00;99.90
1538;DHT22;12022;52.266;10.522;2022-10-01T11:12:24;15.80;99.90
1538;DHT22;12022;52.266;10.522;2022-10-01T11:15:21;15.70;99.90
1538;DHT22;12022;52.266;10.522;2022-10-01T11:20:51;15.60;99.90
1538;DHT22;12022;52.266;10.522;2022-10-01T11:40:00;15.90;99.90
1538;DHT22;12022;52.266;10.522;2022-10-01T11:42:32;16.00;99.90
1538;DHT22;12022;52.266;10.522;2022-10-01T11:45:16;16.30;99.90
1538;DHT22;12022;52.266;10.522;2022-10-01T11:47:57;16.40;99.90
1538;DHT22;12022;52.266;10.522;2022-10-01T11:50:32;16.50;99.90
1538;DHT22;12022;52.266;10.522;2022-10-01T11:55:57;16.70;99.90
1538;DHT22;12022;52.266;10.522;2022-10-01T11:58:54;16.70;99.90
1538;DHT22;12022;52.266;10.522;2022-10-01T12:06:23;16.90;99.90
1538;DHT22;12022;52.266;10.522;2022-10-01T12:09:23;17.00;99.90
1538;DHT22;12022;52.266;10.522;2022-10-01T12:11:59;17.10;99.90
1538;DHT22;12022;52.266;10.522;2022-10-01T12:23:06;17.00;99.90
1538;DHT22;12022;52.266;10.522;2022-10-01T12:28:51;16.60;99.90
1538;DHT22;12022;52.266;10.522;2022-10-01T12:31:36;16.50;99.90
1538;DHT22;12022;52.266;10.522;2022-10-01T12:34:23;16.40;99.90
1538;DHT22;12022;52.266;10.522;2022-10-01T12:45:26;16.40;99.90
1538;DHT22;12022;52.266;10.522;2022-10-01T12:56:40;16.00;99.90
1538;DHT22;12022;52.266;10.522;2022-10-01T13:13:12;16.00;99.90
1538;DHT22;12022;52.266;10.522;2022-10-01T13:15:42;16.20;99.90
1538;DHT22;12022;52.266;10.522;2022-10-01T13:18:36;16.20;99.90
1538;DHT22;12022;52.266;10.522;2022-10-01T13:24:17;16.40;99.90
1538;DHT22;12022;52.266;10.522;2022-10-01T13:34:58;16.70;99.90
1538;DHT22;12022;52.266;10.522;2022-10-01T13:37:35;16.70;99.90
1538;DHT22;12022;52.266;10.522;2022-10-01T13:40:19;16.80;99.90
1538;DHT22;12022;52.266;10.522;2022-10-01T13:42:48;16.70;99.90
1538;DHT22;12022;52.266;10.522;2022-10-01T13:48:24;16.70;99.90
1538;DHT22;12022;52.266;10.522;2022-10-01T13:51:10;16.70;99.90
1538;DHT22;12022;52.266;10.522;2022-10-01T13:56:11;16.80;99.90
1538;DHT22;12022;52.266;10.522;2022-10-01T13:58:40;17.00;99.90
1538;DHT22;12022;52.266;10.522;2022-10-01T14:09:12;17.70;99.90
1538;DHT22;12022;52.266;10.522;2022-10-01T14:11:44;17.80;99.90
1538;DHT22;12022;52.266;10.522;2022-10-01T14:14:37;18.10;99.90
1538;DHT22;12022;52.266;10.522;2022-10-01T14:17:28;18.20;99.90
1538;DHT22;12022;52.266;10.522;2022-10-01T14:19:57;18.30;99.90
1538;DHT22;12022;52.266;10.522;2022-10-01T14:25:13;18.40;99.90
1538;DHT22;12022;52.266;10.522;2022-10-01T14:36:34;18.20;99.90
1538;DHT22;12022;52.266;10.522;2022-10-01T14:39:21;18.10;99.90
1538;DHT22;12022;52.266;10.522;2022-10-01T14:41:50;18.00;99.90
1538;DHT22;12022;52.266;10.522;2022-10-01T14:44:27;17.80;99.90
1538;DHT22;12022;52.266;10.522;2022-10-01T14:46:56;17.80;99.90
1538;DHT22;12022;52.266;10.522;2022-10-01T14:49:31;17.80;99.90
1538;DHT22;12022;52.266;10.522;2022-10-01T14:52:06;17.80;99.90
1538;DHT22;12022;52.266;10.522;2022-10-01T15:06:44;15.30;99.90
1538;DHT22;12022;52.266;10.522;2022-10-01T15:09:13;14.70;99.90
1538;DHT22;12022;52.266;10.522;2022-10-01T15:17:35;13.60;99.90
1538;DHT22;12022;52.266;10.522;2022-10-01T15:20:03;13.40;99.90
1538;DHT22;12022;52.266;10.522;2022-10-01T15:22:33;13.20;99.90
1538;DHT22;12022;52.266;10.522;2022-10-01T15:25:01;13.10;99.90
1538;DHT22;12022;52.266;10.522;2022-10-01T15:27:32;13.00;99.90
1538;DHT22;12022;52.266;10.522;2022-10-01T15:32:48;12.80;99.90
1538;DHT22;12022;52.266;10.522;2022-10-01T15:35:21;12.80;99.90
1538;DHT22;12022;52.266;10.522;2022-10-01T15:37:49;12.70;99.90
1538;DHT22;12022;52.266;10.522;2022-10-01T15:40:31;12.70;99.90
1538;DHT22;12022;52.266;10.522;2022-10-01T15:43:42;12.70;99.90
1538;DHT22;12022;52.266;10.522;2022-10-01T15:46:18;12.60;99.90
1538;DHT22;12022;52.266;10.522;2022-10-01T15:51:59;12.80;99.90
1538;DHT22;12022;52.266;10.522;2022-10-01T15:54:58;12.80;99.90
1538;DHT22;12022;52.266;10.522;2022-10-01T15:57:27;12.80;99.90
1538;DHT22;12022;52.266;10.522;2022-10-01T15:59:59;12.90;99.90
1538;DHT22;12022;52.266;10.522;2022-10-01T16:02:28;12.90;99.90
1538;DHT22;12022;52.266;10.522;2022-10-01T16:05:06;12.80;99.90
1538;DHT22;12022;52.266;10.522;2022-10-01T16:07:35;12.80;99.90
1538;DHT22;12022;52.266;10.522;2022-10-01T16:10:25;12.80;99.90
1538;DHT22;12022;52.266;10.522;2022-10-01T16:12:53;12.80;99.90
1538;DHT22;12022;52.266;10.522;2022-10-01T16:15:29;12.70;99.90
1538;DHT22;12022;52.266;10.522;2022-10-01T16:18:00;12.70;99.90
1538;DHT22;12022;52.266;10.522;2022-10-01T16:20:41;12.70;99.90
1538;DHT22;12022;52.266;10.522;2022-10-01T16:28:56;12.60;99.90
1538;DHT22;12022;52.266;10.522;2022-10-01T16:31:24;12.60;99.90
1538;DHT22;12022;52.266;10.522;2022-10-01T16:33:52;12.60;99.90
1538;DHT22;12022;52.266;10.522;2022-10-01T16:36:19;12.40;99.90
1538;DHT22;12022;52.266;10.522;2022-10-01T16:38:47;12.50;99.90
1538;DHT22;12022;52.266;10.522;2022-10-01T16:41:21;12.40;99.90
1538;DHT22;12022;52.266;10.522;2022-10-01T16:43:54;12.40;99.90
1538;DHT22;12022;52.266;10.522;2022-10-01T16:46:22;12.40;99.90
1538;DHT22;12022;52.266;10.522;2022-10-01T16:48:52;12.30;99.90
1538;DHT22;12022;52.266;10.522;2022-10-01T16:51:20;12.30;99.90
1538;DHT22;12022;52.266;10.522;2022-10-01T16:53:48;12.20;99.90
1538;DHT22;12022;52.266;10.522;2022-10-01T16:56:16;12.30;99.90
1538;DHT22;12022;52.266;10.522;2022-10-01T17:01:53;12.20;99.90
1538;DHT22;12022;52.266;10.522;2022-10-01T17:04:22;12.10;99.90
1538;DHT22;12022;52.266;10.522;2022-10-01T17:06:57;12.20;99.90
1538;DHT22;12022;52.266;10.522;2022-10-01T17:09:24;12.10;99.90
1538;DHT22;12022;52.266;10.522;2022-10-01T17:11:52;12.10;99.90
1538;DHT22;12022;52.266;10.522;2022-10-01T17:14:20;12.10;99.90
1538;DHT22;12022;52.266;10.522;2022-10-01T17:16:47;12.10;99.90
1538;DHT22;12022;52.266;10.522;2022-10-01T17:19:17;12.10;99.90
1538;DHT22;12022;52.266;10.522;2022-10-01T17:21:45;12.10;99.90
1538;DHT22;12022;52.266;10.522;2022-10-01T17:24:12;12.00;99.90
1538;DHT22;12022;52.266;10.522;2022-10-01T17:26:41;12.00;99.90
1538;DHT22;12022;52.266;10.522;2022-10-01T17:29:17;12.00;99.90
1538;DHT22;12022;52.266;10.522;2022-10-01T17:31:45;12.00;99.90
1538;DHT22;12022;52.266;10.522;2022-10-01T17:34:23;12.00;99.90
1538;DHT22;12022;52.266;10.522;2022-10-01T17:36:51;12.00;99.90
1538;DHT22;12022;52.266;10.522;2022-10-01T17:39:19;12.10;99.90
1538;DHT22;12022;52.266;10.522;2022-10-01T17:41:49;12.10;99.90
1538;DHT22;12022;52.266;10.522;2022-10-01T17:44:17;12.20;99.90
1538;DHT22;12022;52.266;10.522;2022-10-01T17:46:48;12.20;99.90
1538;DHT22;12022;52.266;10.522;2022-10-01T17:49:22;12.30;99.90
1538;DHT22;12022;52.266;10.522;2022-10-01T17:51:50;12.40;99.90
1538;DHT22;12022;52.266;10.522;2022-10-01T17:54:19;12.40;99.90
1538;DHT22;12022;52.266;10.522;2022-10-01T17:56:49;12.40;99.90
1538;DHT22;12022;52.266;10.522;2022-10-01T17:59:30;12.40;99.90
1538;DHT22;12022;52.266;10.522;2022-10-01T18:02:28;12.30;99.90
1538;DHT22;12022;52.266;10.522;2022-10-01T18:05:08;12.30;99.90
1538;DHT22;12022;52.266;10.522;2022-10-01T18:07:38;12.40;99.90
1538;DHT22;12022;52.266;10.522;2022-10-01T18:10:06;12.40;99.90
1538;DHT22;12022;52.266;10.522;2022-10-01T18:12:34;12.40;99.90
1538;DHT22;12022;52.266;10.522;2022-10-01T18:15:01;12.50;99.90
1538;DHT22;12022;52.266;10.522;2022-10-01T18:17:29;12.50;99.90
1538;DHT22;12022;52.266;10.522;2022-10-01T18:19:58;12.40;99.90
1538;DHT22;12022;52.266;10.522;2022-10-01T18:22:25;12.40;99.90
1538;DHT22;12022;52.266;10.522;2022-10-01T18:24:53;12.40;99.90
1538;DHT22;12022;52.266;10.522;2022-10-01T18:27:20;12.40;99.90
1538;DHT22;12022;52.266;10.522;2022-10-01T18:29:47;12.40;99.90
1538;DHT22;12022;52.266;10.522;2022-10-01T18:32:26;12.40;99.90
1538;DHT22;12022;52.266;10.522;2022-10-01T18:34:58;12.40;99.90
1538;DHT22;12022;52.266;10.522;2022-10-01T18:40:28;12.30;99.90
1538;DHT22;12022;52.266;10.522;2022-10-01T18:43:11;12.30;99.90
1538;DHT22;12022;52.266;10.522;2022-10-01T18:45:46;12.30;99.90
1538;DHT22;12022;52.266;10.522;2022-10-01T18:54:13;12.20;99.90
1538;DHT22;12022;52.266;10.522;2022-10-01T19:05:52;12.30;99.90
1538;DHT22;12022;52.266;10.522;2022-10-01T19:08:47;12.30;99.90
1538;DHT22;12022;52.266;10.522;2022-10-01T19:23:08;12.30;99.90
1538;DHT22;12022;52.266;10.522;2022-10-01T19:25:53;12.40;99.90
1538;DHT22;12022;52.266;10.522;2022-10-01T19:31:44;12.40;99.90
1538;DHT22;12022;52.266;10.522;2022-10-01T19:34:26;12.40;99.90
1538;DHT22;12022;52.266;10.522;2022-10-01T19:37:00;12.40;99.90
1538;DHT22;12022;52.266;10.522;2022-10-01T19:39:35;12.40;99.90
1538;DHT22;12022;52.266;10.522;2022-10-01T19:42:22;12.30;99.90
1538;DHT22;12022;52.266;10.522;2022-10-01T19:45:00;12.30;99.90